createdAt,value
2022-10-06T00:01:26.966Z,17.00
2022-10-06T00:03:55.350Z,16.90
2022-10-06T00:06:23.501Z,17.00
2022-10-06T00:08:51.634Z,17.00
2022-10-06T00:11:21.237Z,16.90
2022-10-06T00:13:49.381Z,17.00
2022-10-06T00:16:21.729Z,17.00
2022-10-06T00:18:50.141Z,17.00
2022-10-06T00:21:18.925Z,16.90
2022-10-06T00:23:47.095Z,17.00
2022-10-06T00:26:16.910Z,17.00
2022-10-06T00:28:47.951Z,17.00
2022-10-06T00:31:17.159Z,17.00
2022-10-06T00:33:45.753Z,17.00
2022-10-06T00:36:15.246Z,17.00
2022-10-06T00:38:43.791Z,16.90
2022-10-06T00:41:14.696Z,17.00
2022-10-06T00:43:54.614Z,17.00
2022-10-06T00:46:29.829Z,16.90
2022-10-06T00:49:04.332Z,16.90
2022-10-06T00:51:35.341Z,16.90
2022-10-06T00:54:04.611Z,16.90
2022-10-06T00:56:33.481Z,16.90
2022-10-06T00:59:03.020Z,16.90
2022-10-06T01:01:32.549Z,16.90
2022-10-06T01:04:05.663Z,16.90
2022-10-06T01:06:46.625Z,16.90
2022-10-06T01:09:17.154Z,16.90
2022-10-06T01:11:47.231Z,16.90
2022-10-06T01:14:17.521Z,16.90
2022-10-06T01:16:51.878Z,16.90
2022-10-06T01:19:30.084Z,16.90
2022-10-06T01:22:01.657Z,16.90
2022-10-06T01:24:31.298Z,16.90
2022-10-06T01:27:01.430Z,16.90
2022-10-06T01:29:32.524Z,16.90
2022-10-06T01:32:01.340Z,16.80
2022-10-06T01:34:29.957Z,16.80
2022-10-06T01:36:58.118Z,16.80
2022-10-06T01:39:27.572Z,16.80
2022-10-06T01:41:57.163Z,16.80
2022-10-06T01:44:25.511Z,16.80
2022-10-06T01:46:53.799Z,16.80
2022-10-06T01:49:22.064Z,16.80
2022-10-06T01:51:50.446Z,16.70
2022-10-06T01:54:18.892Z,16.80
2022-10-06T01:56:47.273Z,16.70
2022-10-06T01:59:17.155Z,16.70
2022-10-06T02:01:45.789Z,16.70
2022-10-06T02:04:15.601Z,16.70
2022-10-06T02:06:45.228Z,16.70
2022-10-06T02:09:13.630Z,16.70
2022-10-06T02:11:43.223Z,16.70
2022-10-06T02:14:13.193Z,16.70
2022-10-06T02:16:43.822Z,16.70
2022-10-06T02:19:13.067Z,16.70
2022-10-06T02:21:42.133Z,16.70
2022-10-06T02:24:11.198Z,16.70
2022-10-06T02:26:39.603Z,16.70
2022-10-06T02:29:07.923Z,16.60
2022-10-06T02:31:36.102Z,16.60
2022-10-06T02:34:05.648Z,16.60
2022-10-06T02:36:34.139Z,16.60
2022-10-06T02:39:02.386Z,16.60
2022-10-06T02:41:31.769Z,16.60
2022-10-06T02:44:00.421Z,16.60
2022-10-06T02:46:28.812Z,16.60
2022-10-06T02:48:57.381Z,16.60
2022-10-06T02:51:26.986Z,16.60
2022-10-06T02:53:55.855Z,16.50
2022-10-06T02:56:25.633Z,16.50
2022-10-06T02:58:55.604Z,16.50
2022-10-06T03:01:30.745Z,16.50
2022-10-06T03:04:02.098Z,16.50
2022-10-06T03:06:32.277Z,16.50
2022-10-06T03:09:09.471Z,16.50
2022-10-06T03:11:42.539Z,16.40
2022-10-06T03:14:17.745Z,16.40
2022-10-06T03:16:50.736Z,16.40
2022-10-06T03:19:23.872Z,16.40
2022-10-06T03:21:53.770Z,16.40
2022-10-06T03:24:25.736Z,16.40
2022-10-06T03:26:58.080Z,16.30
2022-10-06T03:29:27.179Z,16.30
2022-10-06T03:31:59.022Z,16.30
2022-10-06T03:34:28.234Z,16.30
2022-10-06T03:37:02.908Z,16.30
2022-10-06T03:39:31.276Z,16.30
2022-10-06T03:41:59.913Z,16.30
2022-10-06T03:44:28.352Z,16.20
2022-10-06T03:46:57.059Z,16.30
2022-10-06T03:49:26.084Z,16.20
2022-10-06T03:51:57.569Z,16.20
2022-10-06T03:54:31.914Z,16.20
2022-10-06T03:57:00.616Z,16.20
2022-10-06T03:59:34.429Z,16.10
2022-10-06T04:02:05.731Z,16.10
2022-10-06T04:04:38.342Z,16.10
2022-10-06T04:07:11.781Z,16.10
2022-10-06T04:09:45.125Z,16.10
2022-10-06T04:12:14.835Z,16.10
2022-10-06T04:14:44.803Z,16.10
2022-10-06T04:17:13.243Z,16.00
2022-10-06T04:19:46.088Z,16.00
2022-10-06T04:22:14.945Z,16.00
2022-10-06T04:24:45.768Z,16.00
2022-10-06T04:27:28.992Z,16.00
2022-10-06T04:30:06.089Z,16.00
2022-10-06T04:32:35.870Z,16.00
2022-10-06T04:35:04.919Z,15.90
2022-10-06T04:37:35.136Z,15.90
2022-10-06T04:40:07.646Z,15.90
2022-10-06T04:42:37.890Z,15.90
2022-10-06T04:45:13.971Z,15.90
2022-10-06T04:47:43.720Z,15.90
2022-10-06T04:50:16.455Z,15.90
2022-10-06T04:53:05.207Z,15.90
2022-10-06T04:55:35.263Z,15.80
2022-10-06T04:58:08.832Z,15.80
2022-10-06T05:00:37.629Z,15.80
2022-10-06T05:03:06.391Z,15.80
2022-10-06T05:05:38.196Z,15.80
2022-10-06T05:08:06.692Z,15.80
2022-10-06T05:10:36.682Z,15.80
2022-10-06T05:13:06.317Z,15.80
2022-10-06T05:15:39.526Z,15.70
2022-10-06T05:18:08.006Z,15.70
2022-10-06T05:20:37.129Z,15.70
2022-10-06T05:23:08.985Z,15.70
2022-10-06T05:25:44.386Z,15.70
2022-10-06T05:28:12.774Z,15.70
2022-10-06T05:30:41.585Z,15.70
2022-10-06T05:33:12.550Z,15.70
2022-10-06T05:35:52.044Z,15.60
2022-10-06T05:38:22.084Z,15.60
2022-10-06T05:41:00.863Z,15.60
2022-10-06T05:43:39.929Z,15.60
2022-10-06T05:46:12.855Z,15.60
2022-10-06T05:48:47.189Z,15.60
2022-10-06T05:51:18.695Z,15.60
2022-10-06T05:53:48.569Z,15.50
2022-10-06T05:56:21.530Z,15.50
2022-10-06T05:58:53.183Z,15.50
2022-10-06T06:01:24.230Z,15.50
2022-10-06T06:03:55.088Z,15.50
2022-10-06T06:06:25.766Z,15.40
2022-10-06T06:08:57.163Z,15.40
2022-10-06T06:11:27.839Z,15.40
2022-10-06T06:13:58.828Z,15.40
2022-10-06T06:16:28.623Z,15.40
2022-10-06T06:18:57.005Z,15.40
2022-10-06T06:21:26.608Z,15.40
2022-10-06T06:23:55.271Z,15.40
2022-10-06T06:26:25.043Z,15.40
2022-10-06T06:29:00.187Z,15.40
2022-10-06T06:31:31.309Z,15.40
2022-10-06T06:34:02.226Z,15.40
2022-10-06T06:36:35.955Z,15.40
2022-10-06T06:39:08.908Z,15.40
2022-10-06T06:41:39.843Z,15.40
2022-10-06T06:44:30.911Z,15.40
2022-10-06T06:47:10.005Z,15.30
2022-10-06T06:49:38.675Z,15.30
2022-10-06T06:52:09.566Z,15.30
2022-10-06T06:54:41.506Z,15.40
2022-10-06T06:57:13.858Z,15.30
2022-10-06T06:59:45.611Z,15.30
2022-10-06T07:02:16.572Z,15.40
2022-10-06T07:04:47.068Z,15.30
2022-10-06T07:07:19.537Z,15.30
2022-10-06T07:09:47.799Z,15.30
2022-10-06T07:12:17.850Z,15.30
2022-10-06T07:15:11.271Z,15.30
2022-10-06T07:17:59.768Z,15.30
2022-10-06T07:20:47.036Z,15.30
2022-10-06T07:23:37.287Z,15.30
2022-10-06T07:26:09.046Z,15.30
2022-10-06T07:28:38.179Z,15.30
2022-10-06T07:31:08.034Z,15.30
2022-10-06T07:33:37.030Z,15.30
2022-10-06T07:36:06.905Z,15.30
2022-10-06T07:38:36.279Z,15.30
2022-10-06T07:41:18.921Z,15.30
2022-10-06T07:43:57.485Z,15.30
2022-10-06T07:46:29.838Z,15.40
2022-10-06T07:49:03.477Z,15.30
2022-10-06T07:51:32.774Z,15.40
2022-10-06T07:54:03.212Z,15.30
2022-10-06T07:56:46.673Z,15.40
2022-10-06T07:59:14.931Z,15.40
2022-10-06T08:01:45.834Z,15.60
2022-10-06T08:04:14.762Z,15.40
2022-10-06T08:06:43.009Z,15.40
2022-10-06T08:09:11.278Z,15.40
2022-10-06T08:11:39.453Z,15.40
2022-10-06T08:14:07.615Z,15.40
2022-10-06T08:16:35.941Z,15.40
2022-10-06T08:19:05.581Z,15.40
2022-10-06T08:21:35.445Z,15.50
2022-10-06T08:24:03.689Z,15.40
2022-10-06T08:26:33.211Z,15.40
2022-10-06T08:29:03.376Z,15.50
2022-10-06T08:31:33.177Z,15.50
2022-10-06T08:34:01.466Z,15.50
2022-10-06T08:36:32.650Z,15.50
2022-10-06T08:39:01.405Z,15.50
2022-10-06T08:41:39.525Z,15.50
2022-10-06T08:44:20.455Z,15.50
2022-10-06T08:46:56.385Z,15.60
2022-10-06T08:49:26.963Z,15.60
2022-10-06T08:52:06.063Z,15.60
2022-10-06T08:54:42.422Z,15.60
2022-10-06T08:57:17.982Z,15.60
2022-10-06T08:59:49.232Z,15.60
2022-10-06T09:02:28.636Z,15.60
2022-10-06T09:04:58.231Z,15.60
2022-10-06T09:07:38.871Z,15.70
2022-10-06T09:10:24.981Z,15.70
2022-10-06T09:12:58.336Z,15.70
2022-10-06T09:15:33.700Z,15.70
2022-10-06T09:18:10.699Z,15.70
2022-10-06T09:20:44.724Z,15.70
2022-10-06T09:23:17.224Z,15.80
2022-10-06T09:25:45.458Z,15.80
2022-10-06T09:28:16.652Z,15.70
2022-10-06T09:30:44.977Z,15.80
2022-10-06T09:33:21.811Z,15.80
2022-10-06T09:36:09.798Z,15.80
2022-10-06T09:38:53.921Z,15.80
2022-10-06T09:41:26.491Z,15.80
2022-10-06T09:43:59.638Z,15.80
2022-10-06T09:46:34.518Z,15.90
2022-10-06T09:49:08.788Z,15.90
2022-10-06T09:51:37.633Z,15.90
2022-10-06T09:54:14.271Z,15.90
2022-10-06T09:56:44.813Z,16.00
2022-10-06T09:59:21.711Z,15.90
2022-10-06T10:01:55.259Z,16.00
2022-10-06T10:04:27.365Z,16.00
2022-10-06T10:06:56.586Z,16.00
2022-10-06T10:09:30.980Z,16.00
2022-10-06T10:12:28.078Z,16.00
2022-10-06T10:14:59.212Z,16.00
2022-10-06T10:17:43.748Z,16.00
2022-10-06T10:20:29.085Z,16.00
2022-10-06T10:23:00.641Z,16.10
2022-10-06T10:25:45.933Z,16.10
2022-10-06T10:28:29.800Z,16.10
2022-10-06T10:31:04.608Z,16.10
2022-10-06T10:33:46.179Z,16.10
2022-10-06T10:36:28.646Z,16.10
2022-10-06T10:38:57.060Z,16.10
2022-10-06T10:41:36.183Z,16.10
2022-10-06T10:44:11.095Z,16.10
2022-10-06T10:46:43.747Z,16.20
2022-10-06T10:49:19.401Z,16.20
2022-10-06T10:51:53.914Z,16.20
2022-10-06T10:54:26.709Z,16.20
2022-10-06T10:56:56.808Z,16.20
2022-10-06T10:59:31.769Z,16.20
2022-10-06T11:02:04.788Z,16.20
2022-10-06T11:04:33.798Z,16.30
2022-10-06T11:07:14.919Z,16.30
2022-10-06T11:09:55.300Z,16.30
2022-10-06T11:12:40.370Z,16.30
2022-10-06T11:15:21.046Z,16.30
2022-10-06T11:17:51.567Z,16.30
2022-10-06T11:20:46.235Z,16.30
2022-10-06T11:23:30.483Z,16.40
2022-10-06T11:26:07.257Z,16.40
2022-10-06T11:28:42.808Z,16.40
2022-10-06T11:31:24.073Z,16.40
2022-10-06T11:33:54.662Z,16.50
2022-10-06T11:36:42.770Z,16.40
2022-10-06T11:39:21.825Z,16.50
2022-10-06T11:41:58.699Z,16.50
2022-10-06T11:44:34.361Z,16.50
2022-10-06T11:47:08.146Z,16.60
2022-10-06T11:50:00.758Z,16.60
2022-10-06T11:52:56.902Z,16.60
2022-10-06T11:55:29.005Z,16.60
2022-10-06T12:01:09.030Z,16.60
2022-10-06T12:04:06.356Z,16.70
2022-10-06T12:07:05.762Z,16.70
2022-10-06T12:09:51.690Z,16.80
2022-10-06T12:12:45.890Z,16.80
2022-10-06T12:18:54.655Z,16.80
2022-10-06T12:21:40.150Z,16.90
2022-10-06T12:24:37.651Z,16.90
2022-10-06T12:27:27.426Z,16.90
2022-10-06T12:30:03.031Z,17.00
2022-10-06T12:32:49.922Z,16.90
2022-10-06T12:35:39.974Z,17.00
2022-10-06T12:38:44.185Z,17.00
2022-10-06T12:41:14.045Z,17.00
2022-10-06T12:43:58.038Z,17.00
2022-10-06T12:46:39.972Z,17.00
2022-10-06T12:49:35.437Z,17.00
2022-10-06T12:52:20.338Z,17.10
2022-10-06T12:55:01.313Z,17.10
2022-10-06T12:57:30.843Z,17.10
2022-10-06T12:59:59.192Z,17.20
2022-10-06T13:02:29.192Z,17.20
2022-10-06T13:05:01.767Z,17.20
2022-10-06T13:07:33.135Z,17.30
2022-10-06T13:10:20.213Z,16.90
2022-10-06T13:12:50.396Z,17.30
2022-10-06T13:15:22.365Z,17.30
2022-10-06T13:17:53.984Z,17.40
2022-10-06T13:20:38.124Z,17.40
2022-10-06T13:23:24.023Z,17.40
2022-10-06T13:25:56.129Z,17.40
2022-10-06T13:28:30.786Z,17.40
2022-10-06T13:33:37.162Z,17.50
2022-10-06T13:36:06.444Z,17.50
2022-10-06T13:38:36.897Z,17.50
2022-10-06T13:41:07.694Z,17.50
2022-10-06T13:43:41.912Z,17.50
2022-10-06T13:46:12.144Z,17.60
2022-10-06T13:48:45.888Z,17.60
2022-10-06T13:51:20.048Z,17.60
2022-10-06T13:53:49.755Z,17.60
2022-10-06T13:56:39.031Z,17.60
2022-10-06T13:59:37.068Z,17.70
2022-10-06T14:02:33.592Z,17.70
2022-10-06T14:05:27.049Z,17.70
2022-10-06T14:07:57.605Z,17.70
2022-10-06T14:10:31.973Z,17.80
2022-10-06T14:13:01.739Z,17.80
2022-10-06T14:15:36.392Z,17.80
2022-10-06T14:18:06.237Z,17.80
2022-10-06T14:20:45.933Z,17.80
2022-10-06T14:23:33.457Z,17.80
2022-10-06T14:26:03.203Z,17.90
2022-10-06T14:28:31.470Z,17.90
2022-10-06T14:30:59.878Z,17.90
2022-10-06T14:33:28.318Z,17.90
2022-10-06T14:35:56.854Z,17.90
2022-10-06T14:38:25.528Z,18.00
2022-10-06T14:40:53.989Z,18.00
2022-10-06T14:43:23.715Z,18.00
2022-10-06T14:45:52.082Z,18.00
2022-10-06T14:48:20.403Z,18.00
2022-10-06T14:50:49.471Z,18.00
2022-10-06T14:53:17.761Z,18.00
2022-10-06T14:55:45.975Z,18.00
2022-10-06T14:58:14.247Z,18.00
2022-10-06T15:00:44.333Z,18.10
2022-10-06T15:03:12.705Z,18.10
2022-10-06T15:06:01.057Z,18.10
2022-10-06T15:08:28.433Z,18.10
2022-10-06T15:10:56.932Z,18.10
2022-10-06T15:13:25.293Z,18.10
2022-10-06T15:16:00.056Z,18.10
2022-10-06T15:18:28.549Z,18.10
2022-10-06T15:21:04.018Z,18.10
2022-10-06T15:23:32.213Z,18.20
2022-10-06T15:26:17.972Z,18.10
2022-10-06T15:29:04.150Z,18.10
2022-10-06T15:31:37.121Z,18.20
2022-10-06T15:34:07.494Z,18.20
2022-10-06T15:36:37.559Z,18.20
2022-10-06T15:39:07.760Z,18.20
2022-10-06T15:41:37.005Z,18.10
2022-10-06T15:44:06.250Z,18.20
2022-10-06T15:46:38.803Z,18.10
2022-10-06T15:49:08.763Z,18.10
2022-10-06T15:51:44.856Z,18.10
2022-10-06T15:54:13.546Z,18.10
2022-10-06T15:56:42.119Z,18.10
2022-10-06T15:59:10.428Z,18.10
2022-10-06T16:01:43.811Z,18.10
2022-10-06T16:04:26.078Z,18.10
2022-10-06T16:06:57.447Z,18.10
2022-10-06T16:09:27.092Z,18.10
2022-10-06T16:11:56.260Z,18.10
2022-10-06T16:14:25.043Z,18.10
2022-10-06T16:16:58.948Z,18.10
2022-10-06T16:19:28.964Z,18.10
2022-10-06T16:21:59.041Z,18.10
2022-10-06T16:24:28.139Z,18.00
2022-10-06T16:26:58.637Z,18.10
2022-10-06T16:29:28.199Z,18.10
2022-10-06T16:31:59.118Z,18.00
2022-10-06T16:34:27.947Z,18.00
2022-10-06T16:36:56.443Z,18.00
2022-10-06T16:39:24.614Z,18.00
2022-10-06T16:41:54.212Z,17.90
2022-10-06T16:44:22.544Z,17.90
2022-10-06T16:46:50.939Z,17.90
2022-10-06T16:49:21.062Z,17.90
2022-10-06T16:51:49.179Z,17.90
2022-10-06T16:54:18.275Z,17.90
2022-10-06T16:56:48.238Z,18.10
2022-10-06T16:59:17.657Z,17.90
2022-10-06T17:01:46.430Z,17.90
2022-10-06T17:04:16.855Z,17.80
2022-10-06T17:06:48.346Z,17.80
2022-10-06T17:09:17.912Z,17.80
2022-10-06T17:11:48.731Z,17.70
2022-10-06T17:14:17.548Z,17.70
2022-10-06T17:16:47.844Z,17.80
2022-10-06T17:19:17.805Z,17.70
2022-10-06T17:21:51.599Z,17.70
2022-10-06T17:24:25.515Z,17.70
2022-10-06T17:26:53.895Z,17.70
2022-10-06T17:29:23.326Z,17.70
2022-10-06T17:31:56.024Z,17.60
2022-10-06T17:34:30.466Z,17.60
2022-10-06T17:37:02.758Z,17.60
2022-10-06T17:39:31.982Z,17.60
2022-10-06T17:42:00.355Z,17.60
2022-10-06T17:44:31.212Z,17.60
2022-10-06T17:47:00.755Z,17.60
2022-10-06T17:49:30.446Z,17.50
2022-10-06T17:51:58.866Z,17.50
2022-10-06T17:54:28.864Z,17.50
2022-10-06T17:56:59.928Z,17.50
2022-10-06T17:59:30.709Z,17.50
2022-10-06T18:02:00.641Z,17.50
2022-10-06T18:04:29.277Z,17.50
2022-10-06T18:06:58.131Z,17.50
2022-10-06T18:09:26.623Z,17.40
2022-10-06T18:11:56.396Z,17.50
2022-10-06T18:14:27.413Z,17.40
2022-10-06T18:16:58.325Z,17.40
2022-10-06T18:19:30.352Z,17.40
2022-10-06T18:22:01.138Z,17.40
2022-10-06T18:24:30.516Z,17.30
2022-10-06T18:27:01.436Z,17.30
2022-10-06T18:29:31.467Z,17.40
2022-10-06T18:32:34.788Z,17.30
2022-10-06T18:37:38.466Z,17.30
2022-10-06T18:40:09.709Z,17.20
2022-10-06T18:42:39.671Z,17.30
2022-10-06T18:45:27.040Z,17.20
2022-10-06T18:48:15.126Z,17.20
2022-10-06T18:50:44.312Z,17.20
2022-10-06T18:53:12.633Z,17.20
2022-10-06T18:55:40.815Z,17.20
2022-10-06T18:58:10.310Z,17.20
2022-10-06T19:00:39.436Z,17.10
2022-10-06T19:03:08.055Z,17.10
2022-10-06T19:05:36.292Z,17.10
2022-10-06T19:08:05.202Z,17.10
2022-10-06T19:10:55.418Z,17.10
2022-10-06T19:13:25.136Z,17.10
2022-10-06T19:15:54.439Z,17.00
2022-10-06T19:18:22.813Z,17.10
2022-10-06T19:20:53.870Z,17.00
2022-10-06T19:23:22.721Z,17.00
2022-10-06T19:26:00.098Z,17.00
2022-10-06T19:28:30.362Z,16.90
2022-10-06T19:30:59.545Z,17.00
2022-10-06T19:33:27.762Z,16.90
2022-10-06T19:35:57.434Z,16.90
2022-10-06T19:38:29.668Z,16.90
2022-10-06T19:41:18.656Z,16.90
2022-10-06T19:43:47.865Z,16.80
2022-10-06T19:46:16.762Z,16.80
2022-10-06T19:48:51.767Z,16.80
2022-10-06T19:51:26.666Z,16.80
2022-10-06T19:53:55.030Z,16.80
2022-10-06T19:56:25.221Z,16.70
2022-10-06T19:58:56.112Z,16.70
2022-10-06T20:01:24.852Z,16.70
2022-10-06T20:03:53.283Z,16.70
2022-10-06T20:06:23.073Z,16.70
2022-10-06T20:08:52.353Z,16.60
2022-10-06T20:11:23.178Z,16.60
2022-10-06T20:13:51.980Z,16.60
2022-10-06T20:16:21.748Z,16.60
2022-10-06T20:18:50.694Z,16.60
2022-10-06T20:21:20.967Z,16.50
2022-10-06T20:23:49.668Z,16.50
2022-10-06T20:26:20.374Z,16.50
2022-10-06T20:28:49.473Z,16.50
2022-10-06T20:31:20.143Z,16.50
2022-10-06T20:33:50.446Z,16.40
2022-10-06T20:36:19.004Z,16.40
2022-10-06T20:39:19.665Z,16.30
2022-10-06T20:41:48.341Z,16.30
2022-10-06T20:44:16.569Z,16.30
2022-10-06T20:46:44.840Z,16.20
2022-10-06T20:49:17.573Z,16.20
2022-10-06T20:51:51.364Z,16.20
2022-10-06T20:54:20.801Z,16.20
2022-10-06T20:56:50.784Z,16.20
2022-10-06T20:59:20.410Z,16.20
2022-10-06T21:01:50.924Z,16.20
2022-10-06T21:04:21.271Z,16.20
2022-10-06T21:06:50.875Z,16.20
2022-10-06T21:09:20.229Z,16.10
2022-10-06T21:11:49.219Z,16.20
2022-10-06T21:14:18.149Z,16.10
2022-10-06T21:16:48.147Z,16.10
2022-10-06T21:19:19.220Z,16.10
2022-10-06T21:21:51.753Z,16.10
2022-10-06T21:24:20.395Z,16.10
2022-10-06T21:26:50.316Z,16.10
2022-10-06T21:29:18.523Z,16.10
2022-10-06T21:31:47.241Z,16.10
2022-10-06T21:34:15.758Z,16.10
2022-10-06T21:36:44.590Z,16.10
2022-10-06T21:39:14.606Z,16.10
2022-10-06T21:41:42.854Z,16.10
2022-10-06T21:44:12.710Z,16.10
2022-10-06T21:46:42.912Z,16.10
2022-10-06T21:49:12.912Z,16.10
2022-10-06T21:51:42.743Z,16.10
2022-10-06T21:54:11.074Z,16.00
2022-10-06T21:56:40.949Z,16.10
2022-10-06T21:59:09.442Z,16.10
2022-10-06T22:01:40.037Z,16.10
2022-10-06T22:04:08.830Z,16.00
2022-10-06T22:06:38.311Z,16.00
2022-10-06T22:09:09.019Z,16.00
2022-10-06T22:11:40.729Z,16.00
2022-10-06T22:14:12.031Z,16.00
2022-10-06T22:16:40.861Z,15.90
2022-10-06T22:19:10.855Z,16.00
2022-10-06T22:21:40.685Z,15.90
2022-10-06T22:24:11.166Z,15.90
2022-10-06T22:26:42.107Z,15.90
2022-10-06T22:29:12.327Z,15.90
2022-10-06T22:31:43.246Z,15.90
2022-10-06T22:34:12.985Z,15.90
2022-10-06T22:36:41.391Z,15.90
2022-10-06T22:39:09.827Z,15.90
2022-10-06T22:41:38.435Z,15.90
2022-10-06T22:44:07.970Z,15.80
2022-10-06T22:46:37.177Z,15.80
2022-10-06T22:49:07.134Z,15.80
2022-10-06T22:51:35.626Z,15.80
2022-10-06T22:54:03.849Z,15.80
2022-10-06T22:56:33.817Z,15.80
2022-10-06T22:59:02.342Z,15.80
2022-10-06T23:01:32.272Z,15.80
2022-10-06T23:04:00.661Z,15.80
2022-10-06T23:06:31.007Z,15.80
2022-10-06T23:08:59.609Z,15.70
2022-10-06T23:11:27.935Z,15.70
2022-10-06T23:13:56.189Z,15.70
2022-10-06T23:16:24.795Z,15.70
2022-10-06T23:18:55.038Z,15.70
2022-10-06T23:21:27.353Z,15.70
2022-10-06T23:23:58.457Z,15.70
2022-10-06T23:26:27.219Z,15.70
2022-10-06T23:28:56.968Z,15.70
2022-10-06T23:31:26.162Z,15.60
2022-10-06T23:33:56.242Z,15.60
2022-10-06T23:36:24.464Z,15.70
2022-10-06T23:38:52.727Z,15.60
2022-10-06T23:41:21.498Z,15.60
2022-10-06T23:43:49.922Z,15.60
2022-10-06T23:46:18.420Z,15.60
2022-10-06T23:48:46.558Z,15.60
2022-10-06T23:51:17.062Z,15.60
2022-10-06T23:53:46.072Z,15.50
2022-10-06T23:56:14.362Z,15.50
2022-10-06T23:58:42.842Z,15.50
